Time;durP1;ratioP1;P1;durP2;ratioP2;P2;SDS_P1;SDS_P2;PMS_P1;PMS_P2;Temp;Humidity;BMP_temperature;BMP_pressure;BME280_temperature;BME280_humidity;BME280_pressure;Samples;Min_cycle;Max_cycle;Signal;HPM_P1;HPM_P2
2023/05/03 00:02:34;;;;;;;2.87;1.50;;;4.80;99.90;;;;;;5083073;28;20209;-55
2023/05/03 00:05:03;;;;;;;4.10;2.37;;;4.80;99.90;;;;;;5080367;28;20287;-50
2023/05/03 00:07:30;;;;;;;3.33;1.90;;;4.80;99.90;;;;;;5077327;28;20701;-55
2023/05/03 00:09:58;;;;;;;2.30;1.90;;;4.80;99.90;;;;;;5059227;28;20205;-53
2023/05/03 00:12:25;;;;;;;2.13;1.60;;;4.70;99.90;;;;;;5076265;28;20739;-51
2023/05/03 00:14:51;;;;;;;4.20;1.83;;;4.70;99.90;;;;;;5078373;28;20194;-51
2023/05/03 00:17:18;;;;;;;3.27;2.07;;;4.60;99.90;;;;;;5084856;28;20221;-53
2023/05/03 00:19:45;;;;;;;2.93;1.80;;;4.60;99.90;;;;;;5082556;28;20202;-52
2023/05/03 00:22:12;;;;;;;2.67;1.90;;;4.50;99.90;;;;;;5075547;28;20331;-48
2023/05/03 00:24:38;;;;;;;3.53;1.80;;;4.50;99.90;;;;;;5057419;28;20201;-49
2023/05/03 00:27:07;;;;;;;6.07;1.90;;;4.40;99.90;;;;;;5074068;28;20288;-47
2023/05/03 00:29:34;;;;;;;4.63;2.27;;;4.40;99.90;;;;;;5082773;28;20209;-46
2023/05/03 00:32:01;;;;;;;3.77;2.07;;;4.40;99.90;;;;;;5081042;28;20213;-49
2023/05/03 00:34:29;;;;;;;5.53;2.23;;;4.40;99.90;;;;;;5084393;28;20190;-50
2023/05/03 00:36:55;;;;;;;4.53;2.50;;;4.40;99.90;;;;;;5080783;28;21077;-55
2023/05/03 00:39:22;;;;;;;8.13;2.67;;;4.30;99.90;;;;;;5048391;28;20206;-48
2023/05/03 00:42:13;;;;;;;4.63;2.00;;;4.30;99.90;;;;;;5076775;28;20958;-52
2023/05/03 00:44:41;;;;;;;3.47;2.10;;;4.20;99.90;;;;;;5082668;28;20227;-53
2023/05/03 00:47:08;;;;;;;5.37;2.53;;;4.20;99.90;;;;;;5077824;28;20330;-51
2023/05/03 00:49:35;;;;;;;2.93;2.07;;;4.20;99.90;;;;;;5088222;28;20280;-53
2023/05/03 00:52:02;;;;;;;4.67;1.90;;;4.20;99.90;;;;;;5080901;28;20200;-49
2023/05/03 00:54:31;;;;;;;4.37;2.10;;;4.20;99.90;;;;;;5040931;28;20205;-55
2023/05/03 00:57:00;;;;;;;7.23;2.60;;;4.20;99.90;;;;;;5081426;28;20244;-53
2023/05/03 00:59:29;;;;;;;5.60;2.93;;;4.20;99.90;;;;;;5079940;28;20189;-55
2023/05/03 01:01:56;;;;;;;4.00;2.47;;;4.20;99.90;;;;;;5082144;28;20724;-55
2023/05/03 01:04:23;;;;;;;6.20;2.70;;;4.20;99.90;;;;;;5078726;28;20832;-48
2023/05/03 01:07:03;;;;;;;6.23;2.60;;;4.10;99.90;;;;;;5077147;28;20218;-52
2023/05/03 01:09:36;;;;;;;4.83;2.23;;;4.20;99.90;;;;;;5043365;28;21820;-50
2023/05/03 01:12:14;;;;;;;2.70;1.97;;;4.10;99.90;;;;;;5074890;28;20615;-53
2023/05/03 01:14:50;;;;;;;2.37;2.07;;;4.10;99.90;;;;;;5078145;28;20705;-51
2023/05/03 01:17:20;;;;;;;4.97;2.17;;;4.10;99.90;;;;;;5080672;28;20220;-53
2023/05/03 01:19:50;;;;;;;5.73;2.23;;;4.00;99.90;;;;;;5076036;28;20967;-46
2023/05/03 01:22:25;;;;;;;3.87;2.27;;;4.00;99.90;;;;;;5075624;28;20190;-46
2023/05/03 01:25:01;;;;;;;2.30;2.10;;;4.00;99.90;;;;;;5050612;28;20197;-50
2023/05/03 01:27:28;;;;;;;3.33;2.57;;;4.00;99.90;;;;;;5083025;28;20213;-50
2023/05/03 01:29:55;;;;;;;4.93;2.23;;;4.00;99.90;;;;;;5079304;28;20869;-54
2023/05/03 01:32:36;;;;;;;3.93;1.97;;;4.00;99.90;;;;;;5082514;28;20198;-52
2023/05/03 01:35:08;;;;;;;3.77;2.13;;;4.00;99.90;;;;;;5070146;28;20186;-50
2023/05/03 01:37:36;;;;;;;4.93;2.40;;;4.00;99.90;;;;;;5077745;28;20218;-52
2023/05/03 01:40:08;;;;;;;2.90;1.90;;;3.90;99.90;;;;;;5071851;28;20211;-49
2023/05/03 01:42:37;;;;;;;6.27;3.10;;;3.90;99.90;;;;;;5061313;28;20212;-47
2023/05/03 01:45:04;;;;;;;6.67;2.47;;;3.90;99.90;;;;;;5079917;28;20942;-54
2023/05/03 01:47:32;;;;;;;3.43;2.73;;;4.00;99.90;;;;;;5079124;28;20210;-50
2023/05/03 01:49:59;;;;;;;3.43;2.00;;;4.00;99.90;;;;;;5071713;28;20174;-50
2023/05/03 01:52:26;;;;;;;3.60;2.23;;;4.00;99.90;;;;;;5083416;28;20272;-49
2023/05/03 01:54:53;;;;;;;3.43;2.50;;;4.00;99.90;;;;;;5071225;28;20201;-52
2023/05/03 01:57:21;;;;;;;3.47;2.40;;;4.00;99.90;;;;;;5060425;28;20217;-51
2023/05/03 01:59:48;;;;;;;2.23;2.00;;;4.00;99.90;;;;;;5077758;28;20201;-47
2023/05/03 02:02:15;;;;;;;3.23;2.70;;;4.00;99.90;;;;;;5074171;28;20289;-49
2023/05/03 02:04:42;;;;;;;6.23;2.57;;;4.00;99.90;;;;;;5076392;28;20201;-44
2023/05/03 02:07:09;;;;;;;3.87;2.77;;;4.00;99.90;;;;;;5081356;28;20342;-50
2023/05/03 02:09:36;;;;;;;4.13;2.80;;;4.00;99.90;;;;;;5081412;28;20194;-51
2023/05/03 02:12:04;;;;;;;4.67;2.70;;;4.00;99.90;;;;;;5050772;28;20209;-48
2023/05/03 02:14:32;;;;;;;5.27;2.80;;;4.10;99.90;;;;;;5079204;28;20870;-49
2023/05/03 02:17:01;;;;;;;5.87;2.83;;;4.10;99.90;;;;;;5070395;28;20198;-51
2023/05/03 02:19:28;;;;;;;5.30;3.07;;;4.10;99.90;;;;;;5079271;28;20274;-52
2023/05/03 02:21:57;;;;;;;4.60;3.47;;;4.10;99.90;;;;;;5077828;28;20243;-49
2023/05/03 02:24:24;;;;;;;3.30;3.00;;;4.20;99.90;;;;;;5081865;28;20193;-48
2023/05/03 02:26:50;;;;;;;3.73;2.30;;;4.20;99.90;;;;;;5053241;28;20683;-50
2023/05/03 02:29:18;;;;;;;3.83;3.20;;;4.20;99.90;;;;;;5074441;28;20202;-49
2023/05/03 02:31:47;;;;;;;4.53;3.37;;;4.30;99.90;;;;;;5067280;28;20726;-51
2023/05/03 02:34:14;;;;;;;4.83;2.60;;;4.30;99.90;;;;;;5080606;28;20198;-50
2023/05/03 02:36:40;;;;;;;5.33;3.17;;;4.30;99.90;;;;;;5081368;28;20312;-50
2023/05/03 02:39:07;;;;;;;3.77;3.23;;;4.30;99.90;;;;;;5080847;28;20432;-52
2023/05/03 02:41:34;;;;;;;4.50;2.83;;;4.30;99.90;;;;;;5081460;28;20198;-49
2023/05/03 02:44:02;;;;;;;7.90;3.30;;;4.30;99.90;;;;;;5043183;28;20210;-51
2023/05/03 02:46:30;;;;;;;9.03;3.67;;;4.30;99.90;;;;;;5078223;28;20598;-54
2023/05/03 02:48:58;;;;;;;3.80;2.67;;;4.30;99.90;;;;;;5082143;28;20201;-52
2023/05/03 02:51:26;;;;;;;7.87;3.10;;;4.40;99.90;;;;;;5086918;28;20213;-54
2023/05/03 02:53:53;;;;;;;3.93;2.93;;;4.40;99.90;;;;;;5074696;28;20562;-52
2023/05/03 02:56:20;;;;;;;4.10;2.67;;;4.50;99.90;;;;;;5078414;28;20190;-49
2023/05/03 02:58:47;;;;;;;3.97;2.47;;;4.50;99.90;;;;;;5049983;28;20218;-54
2023/05/03 03:01:13;;;;;;;3.40;2.63;;;4.50;99.90;;;;;;5082262;28;20200;-50
2023/05/03 03:03:40;;;;;;;5.83;3.10;;;4.60;99.90;;;;;;5082976;28;20237;-53
2023/05/03 03:06:10;;;;;;;10.40;3.07;;;4.60;99.90;;;;;;5084398;28;20267;-52
2023/05/03 03:08:37;;;;;;;4.70;2.90;;;4.60;99.90;;;;;;5083580;28;20206;-52
2023/05/03 03:11:05;;;;;;;5.53;2.83;;;4.60;99.90;;;;;;5078552;28;20204;-51
2023/05/03 03:13:33;;;;;;;4.77;2.53;;;4.60;99.90;;;;;;5053158;28;20271;-54
2023/05/03 03:16:02;;;;;;;3.23;2.70;;;4.70;99.90;;;;;;5049994;28;20793;-53
2023/05/03 03:18:28;;;;;;;3.03;2.73;;;4.70;99.90;;;;;;5084386;28;20283;-44
2023/05/03 03:20:55;;;;;;;3.77;2.63;;;4.80;99.90;;;;;;5081002;28;20201;-53
2023/05/03 03:23:24;;;;;;;2.57;2.37;;;4.80;99.90;;;;;;5081651;28;20194;-49
2023/05/03 03:25:51;;;;;;;2.97;2.67;;;4.90;99.90;;;;;;5073719;28;20205;-54
2023/05/03 03:28:20;;;;;;;4.37;2.93;;;4.90;99.90;;;;;;5071196;28;20218;-51
2023/05/03 03:30:47;;;;;;;4.90;2.53;;;4.90;99.90;;;;;;5051262;28;20467;-49
2023/05/03 03:33:25;;;;;;;5.53;3.00;;;4.90;99.90;;;;;;5083451;28;20652;-53
2023/05/03 03:35:55;;;;;;;3.20;2.17;;;5.00;99.90;;;;;;5081517;28;20190;-45
2023/05/03 03:38:28;;;;;;;4.10;2.60;;;5.00;99.90;;;;;;5079729;28;20214;-52
2023/05/03 03:41:01;;;;;;;5.07;2.37;;;5.10;99.90;;;;;;5075907;28;20241;-46
2023/05/03 03:43:29;;;;;;;6.23;2.90;;;5.10;99.90;;;;;;5078668;28;20197;-57
2023/05/03 03:45:57;;;;;;;5.90;2.73;;;5.10;99.90;;;;;;5054597;28;21179;-47
2023/05/03 03:48:24;;;;;;;6.00;2.70;;;5.20;99.90;;;;;;5083543;28;20213;-50
2023/05/03 03:50:51;;;;;;;3.77;2.47;;;5.20;99.90;;;;;;5081689;28;20185;-52
2023/05/03 03:53:23;;;;;;;4.13;2.40;;;5.30;99.90;;;;;;5076196;28;20758;-52
2023/05/03 03:55:51;;;;;;;4.73;2.90;;;5.30;99.90;;;;;;5077816;28;20182;-45
2023/05/03 03:58:18;;;;;;;3.47;2.37;;;5.30;99.90;;;;;;5084165;28;20206;-46
2023/05/03 04:00:45;;;;;;;2.93;2.47;;;5.30;99.90;;;;;;5049105;28;25381;-46
2023/05/03 04:03:16;;;;;;;5.90;2.80;;;5.30;99.90;;;;;;5083505;28;20198;-45
2023/05/03 04:05:43;;;;;;;5.77;2.80;;;5.40;99.90;;;;;;5063789;28;20194;-54
2023/05/03 04:08:10;;;;;;;5.93;2.43;;;5.40;99.90;;;;;;5079731;28;20217;-53
2023/05/03 04:10:38;;;;;;;5.87;2.90;;;5.40;99.90;;;;;;5077942;28;20241;-55
2023/05/03 04:13:07;;;;;;;5.93;3.30;;;5.40;99.90;;;;;;5083995;28;20197;-49
2023/05/03 04:15:35;;;;;;;6.07;2.20;;;5.40;99.90;;;;;;5059427;28;20728;-57
2023/05/03 04:18:04;;;;;;;3.43;2.60;;;5.40;99.90;;;;;;5078125;28;20691;-46
2023/05/03 04:20:32;;;;;;;3.70;3.03;;;5.50;99.90;;;;;;5074835;28;20245;-56
2023/05/03 04:23:00;;;;;;;3.77;2.60;;;5.50;99.90;;;;;;5067929;28;21000;-44
2023/05/03 04:25:30;;;;;;;5.97;3.50;;;5.50;99.90;;;;;;5082162;28;20276;-54
2023/05/03 04:28:03;;;;;;;8.57;3.23;;;5.50;99.90;;;;;;5075004;28;20312;-44
2023/05/03 04:30:34;;;;;;;5.23;2.93;;;5.60;99.90;;;;;;5063800;28;20621;-56
2023/05/03 04:33:03;;;;;;;5.50;2.90;;;5.60;99.90;;;;;;5072754;28;20225;-51
2023/05/03 04:35:31;;;;;;;6.07;3.43;;;5.60;99.90;;;;;;5073605;28;20201;-56
2023/05/03 04:38:01;;;;;;;5.47;3.37;;;5.70;99.90;;;;;;5079936;28;20198;-47
2023/05/03 04:40:31;;;;;;;7.57;3.50;;;5.70;99.90;;;;;;5081647;28;20218;-55
2023/05/03 04:43:06;;;;;;;4.07;3.40;;;5.70;99.90;;;;;;5074499;28;20197;-45
2023/05/03 04:45:38;;;;;;;8.50;3.63;;;5.80;99.90;;;;;;5054461;28;20220;-57
2023/05/03 04:48:08;;;;;;;8.53;4.03;;;5.80;99.90;;;;;;5076683;28;20252;-50
2023/05/03 04:50:36;;;;;;;7.40;3.67;;;5.80;99.90;;;;;;5072548;28;20232;-54
2023/05/03 04:53:04;;;;;;;4.63;3.57;;;5.90;99.90;;;;;;5081911;28;20674;-47
2023/05/03 04:55:33;;;;;;;7.13;3.47;;;5.90;99.90;;;;;;5080811;28;20668;-54
2023/05/03 04:58:03;;;;;;;8.67;3.80;;;6.00;99.90;;;;;;5081350;28;20210;-50
2023/05/03 05:00:32;;;;;;;8.13;3.90;;;6.00;99.90;;;;;;5075700;28;20209;-55
2023/05/03 05:03:06;;;;;;;4.63;3.43;;;6.10;99.90;;;;;;5051806;28;20199;-50
2023/05/03 05:05:34;;;;;;;4.27;3.20;;;6.10;99.90;;;;;;5064280;28;20716;-55
2023/05/03 05:08:01;;;;;;;5.97;3.87;;;6.10;99.90;;;;;;5094249;28;20649;-53
2023/05/03 05:10:37;;;;;;;8.53;3.77;;;6.20;99.90;;;;;;5065913;28;20290;-54
2023/05/03 05:13:05;;;;;;;4.03;3.60;;;6.30;99.90;;;;;;5076033;28;20202;-49
2023/05/03 05:15:32;;;;;;;7.53;3.43;;;6.30;99.90;;;;;;5069591;28;20369;-55
2023/05/03 05:18:00;;;;;;;9.13;3.53;;;6.30;99.90;;;;;;5034067;28;20311;-48
2023/05/03 05:20:28;;;;;;;9.03;3.40;;;6.40;99.90;;;;;;5072443;28;20193;-57
2023/05/03 05:22:55;;;;;;;6.30;3.30;;;6.50;99.90;;;;;;5075420;28;20217;-46
2023/05/03 05:25:24;;;;;;;5.77;4.23;;;6.50;99.90;;;;;;5066683;28;20289;-56
2023/05/03 05:27:58;;;;;;;7.20;3.30;;;6.60;99.90;;;;;;5077903;28;20697;-53
2023/05/03 05:30:35;;;;;;;4.90;3.27;;;6.60;99.90;;;;;;5076962;28;20287;-56
2023/05/03 05:33:08;;;;;;;4.83;3.53;;;6.70;99.90;;;;;;5056841;28;20210;-46
2023/05/03 05:35:52;;;;;;;3.33;2.63;;;6.80;99.90;;;;;;5072247;28;20218;-49
2023/05/03 05:38:26;;;;;;;7.73;3.20;;;6.80;99.90;;;;;;5059451;28;20222;-56
2023/05/03 05:41:01;;;;;;;5.00;3.73;;;6.90;99.90;;;;;;5072239;28;20212;-47
2023/05/03 05:43:29;;;;;;;8.77;3.00;;;7.00;99.90;;;;;;5075679;28;20208;-59
2023/05/03 05:45:57;;;;;;;6.20;2.27;;;7.10;99.90;;;;;;5065680;28;20754;-51
2023/05/03 05:48:25;;;;;;;2.00;1.67;;;7.20;99.90;;;;;;5060407;28;20225;-53
2023/05/03 05:50:56;;;;;;;5.60;2.33;;;7.20;99.90;;;;;;5076047;28;20231;-50
2023/05/03 05:53:34;;;;;;;5.23;2.50;;;7.30;99.90;;;;;;5076661;28;20194;-56
2023/05/03 05:56:04;;;;;;;4.83;2.57;;;7.30;99.90;;;;;;5068443;28;20205;-50
2023/05/03 05:58:40;;;;;;;5.03;2.73;;;7.40;99.90;;;;;;5055380;28;20218;-52
2023/05/03 06:01:08;;;;;;;8.20;2.97;;;7.50;99.90;;;;;;5080228;28;20200;-47
2023/05/03 06:03:37;;;;;;;3.60;2.43;;;7.50;99.90;;;;;;5075779;28;20178;-52
2023/05/03 06:06:08;;;;;;;8.50;2.60;;;7.60;99.90;;;;;;5055490;28;20244;-47
2023/05/03 06:08:36;;;;;;;4.13;2.17;;;7.60;99.90;;;;;;5069804;28;20292;-45
2023/05/03 06:11:02;;;;;;;3.27;1.50;;;7.70;99.90;;;;;;5077358;28;20193;-47
2023/05/03 06:13:32;;;;;;;3.47;1.60;;;7.80;99.90;;;;;;5059152;28;20711;-48
2023/05/03 06:15:59;;;;;;;6.77;2.27;;;7.80;99.90;;;;;;5066939;28;20893;-47
2023/05/03 06:18:26;;;;;;;4.03;1.70;;;7.90;99.90;;;;;;5071780;28;20217;-53
2023/05/03 06:20:53;;;;;;;5.33;1.87;;;7.90;99.90;;;;;;5053490;28;20212;-50
2023/05/03 06:23:22;;;;;;;3.00;1.40;;;8.00;99.90;;;;;;5076711;28;20220;-50
2023/05/03 06:25:50;;;;;;;4.60;2.20;;;8.10;99.90;;;;;;5061917;28;20206;-51
2023/05/03 06:28:17;;;;;;;3.33;1.30;;;8.10;99.90;;;;;;5072007;28;20212;-52
2023/05/03 06:30:48;;;;;;;5.47;1.20;;;8.20;99.90;;;;;;5071680;28;20210;-45
2023/05/03 06:33:15;;;;;;;3.87;1.13;;;8.30;99.90;;;;;;5070184;28;20588;-49
2023/05/03 06:35:46;;;;;;;2.90;1.13;;;8.40;99.90;;;;;;5063312;28;20212;-51
2023/05/03 06:38:15;;;;;;;1.97;1.00;;;8.40;99.90;;;;;;5078383;28;20210;-50
2023/05/03 06:40:44;;;;;;;2.83;1.33;;;8.40;99.90;;;;;;5068480;28;20202;-51
2023/05/03 06:43:11;;;;;;;2.67;0.80;;;8.40;99.90;;;;;;5077605;28;20679;-50
2023/05/03 06:45:44;;;;;;;3.47;0.93;;;8.50;99.90;;;;;;5076132;28;20209;-48
2023/05/03 06:48:11;;;;;;;1.63;1.00;;;8.50;99.90;;;;;;5080304;28;20210;-51
2023/05/03 06:50:38;;;;;;;2.57;0.67;;;8.50;99.90;;;;;;5075246;28;20205;-49
2023/05/03 06:53:05;;;;;;;2.07;0.67;;;8.60;99.90;;;;;;5056515;28;20826;-54
2023/05/03 06:55:32;;;;;;;3.90;0.83;;;8.70;99.90;;;;;;5065044;28;20248;-51
2023/05/03 06:58:01;;;;;;;3.90;0.70;;;8.70;99.90;;;;;;5075565;28;20225;-46
2023/05/03 07:00:28;;;;;;;1.57;1.00;;;8.60;99.90;;;;;;5066053;28;20242;-56
2023/05/03 07:02:55;;;;;;;2.13;0.70;;;8.60;99.90;;;;;;5074953;28;20213;-47
2023/05/03 07:05:22;;;;;;;0.87;0.60;;;8.70;99.90;;;;;;5066057;28;20293;-57
2023/05/03 07:07:48;;;;;;;1.03;0.60;;;8.80;99.90;;;;;;5067562;28;20218;-55
2023/05/03 07:10:15;;;;;;;0.77;0.67;;;8.80;99.90;;;;;;5079331;28;20306;-57
2023/05/03 07:12:42;;;;;;;3.50;0.90;;;8.80;99.90;;;;;;5075341;28;20190;-50
2023/05/03 07:15:11;;;;;;;2.13;0.80;;;8.90;99.90;;;;;;5071490;28;20187;-51
2023/05/03 07:17:38;;;;;;;2.83;0.57;;;8.90;99.90;;;;;;5066701;28;21755;-46
2023/05/03 07:20:05;;;;;;;1.93;0.70;;;9.00;99.90;;;;;;5072757;28;20664;-50
2023/05/03 07:22:32;;;;;;;2.67;0.60;;;9.00;99.90;;;;;;5060991;28;20195;-50
2023/05/03 07:24:58;;;;;;;1.03;0.73;;;9.00;99.90;;;;;;5062326;28;20202;-45
2023/05/03 07:27:25;;;;;;;1.03;0.67;;;9.00;99.90;;;;;;5074102;28;20226;-55
2023/05/03 07:29:52;;;;;;;1.53;0.60;;;9.00;99.90;;;;;;5074486;28;20676;-47
2023/05/03 07:32:21;;;;;;;1.10;1.00;;;9.00;99.90;;;;;;5073774;28;20234;-57
2023/05/03 07:34:47;;;;;;;2.37;0.70;;;9.10;99.90;;;;;;5059643;28;20195;-53
2023/05/03 07:37:14;;;;;;;1.60;0.70;;;9.20;99.90;;;;;;5070987;28;20222;-56
2023/05/03 07:39:41;;;;;;;1.50;0.60;;;9.20;99.90;;;;;;5055945;28;20275;-46
2023/05/03 07:42:09;;;;;;;3.30;1.00;;;9.20;99.90;;;;;;5080298;28;20208;-45
2023/05/03 07:44:36;;;;;;;3.13;0.80;;;9.30;99.90;;;;;;5066124;28;20201;-45
2023/05/03 07:47:03;;;;;;;2.63;0.50;;;9.40;99.90;;;;;;5069543;28;20343;-52
2023/05/03 07:49:34;;;;;;;2.40;0.60;;;9.50;99.90;;;;;;5059892;28;20939;-50
2023/05/03 07:52:01;;;;;;;2.07;0.70;;;9.50;99.90;;;;;;5069224;28;20628;-48
2023/05/03 07:54:28;;;;;;;1.43;0.63;;;9.40;99.90;;;;;;5050402;28;20205;-54
2023/05/03 07:56:55;;;;;;;3.33;0.70;;;9.20;99.90;;;;;;5079411;28;20305;-51
2023/05/03 07:59:21;;;;;;;1.50;0.40;;;9.10;99.90;;;;;;5074379;28;20675;-52
2023/05/03 08:01:49;;;;;;;3.10;0.60;;;9.10;99.90;;;;;;5076358;28;20194;-54
2023/05/03 08:04:16;;;;;;;1.03;0.60;;;9.10;99.90;;;;;;5066790;28;20552;-52
2023/05/03 08:06:44;;;;;;;2.17;0.70;;;9.30;99.90;;;;;;5080703;28;20518;-52
2023/05/03 08:09:11;;;;;;;1.83;0.60;;;9.60;99.90;;;;;;5070810;28;20218;-53
2023/05/03 08:11:38;;;;;;;2.40;0.80;;;9.80;99.90;;;;;;5059948;28;21034;-52
2023/05/03 08:14:05;;;;;;;2.53;0.87;;;9.90;99.90;;;;;;5081161;28;20277;-52
2023/05/03 08:16:31;;;;;;;3.13;0.80;;;9.90;99.90;;;;;;5066818;28;20296;-51
2023/05/03 08:18:58;;;;;;;2.83;0.70;;;9.80;99.90;;;;;;5074799;28;20670;-54
2023/05/03 08:21:27;;;;;;;1.73;0.77;;;9.80;99.90;;;;;;5071406;28;20198;-56
2023/05/03 08:23:55;;;;;;;2.20;0.67;;;9.70;99.90;;;;;;5070808;28;20201;-49
2023/05/03 08:26:23;;;;;;;3.03;0.70;;;9.60;99.90;;;;;;5059757;28;20320;-57
2023/05/03 08:28:49;;;;;;;3.00;0.70;;;9.60;99.90;;;;;;5076684;28;21015;-56
2023/05/03 08:31:17;;;;;;;2.30;0.70;;;9.60;99.90;;;;;;5066442;28;20224;-57
2023/05/03 08:33:43;;;;;;;1.97;0.50;;;9.70;99.90;;;;;;5070055;28;20198;-50
2023/05/03 08:36:10;;;;;;;2.43;0.60;;;9.80;99.90;;;;;;5078376;28;20198;-54
2023/05/03 08:38:40;;;;;;;1.47;0.60;;;10.00;99.90;;;;;;5077704;28;20226;-46
2023/05/03 08:41:17;;;;;;;1.77;0.73;;;10.10;99.90;;;;;;5052855;28;20284;-54
2023/05/03 08:43:45;;;;;;;0.83;0.83;;;10.10;99.90;;;;;;5069350;28;20186;-51
2023/05/03 08:46:12;;;;;;;3.20;0.77;;;10.10;99.90;;;;;;5063700;28;20823;-54
2023/05/03 08:48:38;;;;;;;1.17;0.70;;;10.20;99.90;;;;;;5075058;28;20229;-51
2023/05/03 08:51:08;;;;;;;1.27;0.50;;;10.30;99.90;;;;;;5078754;28;20198;-47
2023/05/03 08:53:34;;;;;;;3.40;1.00;;;10.30;99.90;;;;;;5079190;28;20196;-52
2023/05/03 08:56:06;;;;;;;3.00;1.23;;;10.30;99.90;;;;;;5068815;28;20237;-53
2023/05/03 08:58:36;;;;;;;3.20;0.70;;;10.30;99.90;;;;;;5049272;28;20210;-51
2023/05/03 09:01:07;;;;;;;2.37;0.60;;;10.30;99.90;;;;;;5070497;28;20212;-50
2023/05/03 09:03:34;;;;;;;1.60;0.60;;;10.40;99.90;;;;;;5075827;28;20190;-54
2023/05/03 09:06:01;;;;;;;1.07;0.60;;;10.50;99.90;;;;;;5068074;28;20686;-49
2023/05/03 09:08:28;;;;;;;2.10;0.90;;;10.50;99.90;;;;;;5074351;28;20259;-58
2023/05/03 09:10:55;;;;;;;1.03;0.70;;;10.40;99.90;;;;;;5063064;28;20225;-50
2023/05/03 09:13:29;;;;;;;4.73;0.90;;;10.40;99.80;;;;;;5053518;28;20673;-55
2023/05/03 09:15:58;;;;;;;3.43;1.50;;;10.40;99.90;;;;;;5073983;28;20256;-49
2023/05/03 09:18:25;;;;;;;2.63;0.77;;;10.40;99.70;;;;;;5066738;28;20233;-57
2023/05/03 09:20:54;;;;;;;5.67;1.00;;;10.50;99.90;;;;;;5069483;28;20198;-51
2023/05/03 09:23:30;;;;;;;3.07;0.97;;;10.60;99.90;;;;;;5068301;28;20237;-56
2023/05/03 09:25:58;;;;;;;3.70;0.70;;;10.70;99.90;;;;;;5064353;28;20206;-54
2023/05/03 09:28:26;;;;;;;5.33;0.57;;;10.70;99.90;;;;;;5053001;28;20233;-59
2023/05/03 09:31:05;;;;;;;3.33;1.20;;;10.70;99.50;;;;;;5073442;28;20296;-47
2023/05/03 09:33:33;;;;;;;1.77;0.90;;;10.70;99.10;;;;;;5068770;28;20213;-46
2023/05/03 09:36:04;;;;;;;4.73;1.10;;;10.70;99.40;;;;;;5070193;28;20703;-51
2023/05/03 09:38:32;;;;;;;3.70;1.03;;;10.70;99.40;;;;;;5059759;28;20282;-52
2023/05/03 09:41:00;;;;;;;3.23;0.60;;;10.70;99.30;;;;;;5065268;28;20194;-48
2023/05/03 09:43:27;;;;;;;3.77;0.80;;;10.90;99.70;;;;;;5047394;28;20194;-58
2023/05/03 09:46:09;;;;;;;3.13;0.90;;;10.90;99.50;;;;;;5075320;28;20202;-47
2023/05/03 09:48:36;;;;;;;1.40;0.70;;;10.90;98.50;;;;;;5062762;28;20229;-47
2023/05/03 09:51:04;;;;;;;2.43;0.70;;;10.80;98.60;;;;;;5072343;28;20222;-54
2023/05/03 09:53:32;;;;;;;2.13;0.70;;;10.90;98.80;;;;;;5057423;28;20896;-56
2023/05/03 09:56:01;;;;;;;3.30;0.90;;;11.10;97.50;;;;;;5072791;28;20194;-53
2023/05/03 09:58:29;;;;;;;1.53;0.80;;;11.10;97.30;;;;;;5050192;28;20230;-58
2023/05/03 10:00:56;;;;;;;2.73;0.60;;;11.20;97.70;;;;;;5058045;28;20194;-53
2023/05/03 10:03:30;;;;;;;2.13;0.90;;;11.40;97.30;;;;;;5074972;28;20255;-49
2023/05/03 10:06:00;;;;;;;3.50;0.97;;;11.40;96.40;;;;;;5062129;28;20845;-55
2023/05/03 10:08:32;;;;;;;2.03;0.90;;;11.30;97.10;;;;;;5069993;28;20789;-48
2023/05/03 10:11:20;;;;;;;2.00;0.80;;;11.10;97.00;;;;;;5074401;28;20717;-49
2023/05/03 10:13:47;;;;;;;1.30;0.80;;;10.90;97.30;;;;;;5051235;28;20198;-59
2023/05/03 10:16:19;;;;;;;2.13;0.70;;;10.90;97.40;;;;;;5072779;28;20194;-51
2023/05/03 10:18:54;;;;;;;2.73;0.83;;;10.90;97.60;;;;;;5057981;28;20753;-58
2023/05/03 10:21:31;;;;;;;1.97;0.70;;;10.90;97.10;;;;;;5057541;28;20287;-54
2023/05/03 10:24:12;;;;;;;4.97;1.10;;;10.90;97.30;;;;;;5070830;28;20275;-50
2023/05/03 10:26:40;;;;;;;2.60;0.97;;;11.20;97.80;;;;;;5069319;28;20186;-56
2023/05/03 10:29:47;;;;;;;1.23;0.70;;;11.50;97.00;;;;;;5048288;28;20328;-49
2023/05/03 10:32:34;;;;;;;1.23;1.10;;;11.70;96.40;;;;;;5065874;28;20197;-50
2023/05/03 10:35:04;;;;;;;1.97;0.77;;;11.90;96.50;;;;;;5053926;28;20206;-51
2023/05/03 10:37:34;;;;;;;3.03;0.90;;;12.00;96.70;;;;;;5071081;28;20287;-52
2023/05/03 10:40:09;;;;;;;2.83;0.70;;;12.10;96.40;;;;;;5072642;28;20197;-49
2023/05/03 10:42:38;;;;;;;5.00;0.70;;;12.10;95.80;;;;;;5078787;28;20200;-57
2023/05/03 10:45:07;;;;;;;1.37;1.03;;;12.10;95.60;;;;;;5053224;28;20976;-52
2023/05/03 10:47:34;;;;;;;1.70;0.97;;;12.20;95.20;;;;;;5062516;28;20963;-50
2023/05/03 10:50:28;;;;;;;2.90;0.80;;;12.00;94.90;;;;;;5069838;28;20410;-49
2023/05/03 10:52:55;;;;;;;0.70;0.70;;;11.80;93.90;;;;;;5064912;28;20234;-42
2023/05/03 10:55:23;;;;;;;1.77;0.80;;;11.70;95.00;;;;;;5077691;28;20675;-51
2023/05/03 10:57:55;;;;;;;1.70;0.93;;;11.70;95.20;;;;;;5081496;28;20218;-46
2023/05/03 11:00:28;;;;;;;2.70;0.80;;;11.60;95.00;;;;;;5051318;28;20236;-51
2023/05/03 11:03:13;;;;;;;3.00;1.03;;;11.60;95.20;;;;;;5074211;28;20635;-52
2023/05/03 11:05:42;;;;;;;2.40;0.80;;;11.80;94.50;;;;;;5062325;28;20324;-48
2023/05/03 11:08:11;;;;;;;1.13;0.80;;;11.80;95.00;;;;;;5072889;28;20711;-53
2023/05/03 11:10:39;;;;;;;1.30;0.83;;;12.10;94.40;;;;;;5083596;28;20285;-45
2023/05/03 11:13:06;;;;;;;2.37;1.30;;;12.30;93.90;;;;;;5085013;28;20297;-50
2023/05/03 11:15:33;;;;;;;1.93;0.90;;;12.50;93.50;;;;;;5052927;28;20258;-50
2023/05/03 11:18:00;;;;;;;1.90;0.80;;;12.20;93.80;;;;;;5078384;28;20240;-48
2023/05/03 11:20:27;;;;;;;2.47;1.33;;;12.20;94.20;;;;;;5074707;28;20644;-47
2023/05/03 11:22:56;;;;;;;2.43;0.97;;;12.30;94.20;;;;;;5076435;28;20233;-51
2023/05/03 11:25:23;;;;;;;1.80;1.10;;;12.20;94.00;;;;;;5082000;28;20656;-50
2023/05/03 11:27:50;;;;;;;2.20;0.90;;;11.90;93.90;;;;;;5082251;28;20224;-49
2023/05/03 11:30:16;;;;;;;3.77;1.20;;;11.70;94.20;;;;;;5062160;28;20259;-55
2023/05/03 11:32:43;;;;;;;0.80;0.70;;;11.80;94.60;;;;;;5071792;28;20916;-49
2023/05/03 11:35:12;;;;;;;3.60;1.00;;;11.80;94.60;;;;;;5080511;28;20261;-51
2023/05/03 11:37:39;;;;;;;2.60;1.13;;;11.80;94.40;;;;;;5066547;28;20233;-46
2023/05/03 11:40:15;;;;;;;4.47;1.10;;;12.00;94.50;;;;;;5084022;28;20190;-52
2023/05/03 11:42:52;;;;;;;1.40;0.73;;;12.10;94.30;;;;;;5076489;28;20190;-55
2023/05/03 11:45:21;;;;;;;1.10;1.00;;;12.10;93.30;;;;;;5076163;28;20190;-55
2023/05/03 11:47:48;;;;;;;5.17;1.10;;;12.20;93.80;;;;;;5062826;28;20218;-48
2023/05/03 11:50:15;;;;;;;2.10;0.70;;;12.20;93.40;;;;;;5083202;28;20285;-51
2023/05/03 11:52:42;;;;;;;3.60;0.97;;;12.20;93.30;;;;;;5075654;28;20287;-53
2023/05/03 11:55:11;;;;;;;2.00;0.83;;;12.10;93.60;;;;;;5071624;28;20847;-51
2023/05/03 11:57:38;;;;;;;2.40;1.03;;;11.90;93.40;;;;;;5074088;28;20612;-55
2023/05/03 12:00:16;;;;;;;3.77;0.97;;;11.80;93.80;;;;;;5082024;28;20202;-53
2023/05/03 12:02:43;;;;;;;3.57;1.07;;;11.80;94.00;;;;;;5059733;28;20915;-50
2023/05/03 12:05:10;;;;;;;1.70;1.00;;;12.00;94.00;;;;;;5082484;28;20198;-54
2023/05/03 12:07:38;;;;;;;1.77;1.10;;;12.30;94.40;;;;;;5070273;28;20228;-51
2023/05/03 12:10:18;;;;;;;3.00;0.97;;;12.60;94.00;;;;;;5065195;28;20211;-51
2023/05/03 12:12:53;;;;;;;2.37;1.17;;;12.80;92.50;;;;;;5070109;28;20277;-49
2023/05/03 12:15:28;;;;;;;3.00;0.90;;;12.80;92.90;;;;;;5076270;28;20197;-55
2023/05/03 12:17:57;;;;;;;1.23;1.13;;;12.90;93.10;;;;;;5058999;28;20569;-52
2023/05/03 12:20:25;;;;;;;2.20;1.03;;;13.00;93.50;;;;;;5079469;28;20198;-55
2023/05/03 12:22:53;;;;;;;3.13;1.00;;;13.20;93.60;;;;;;5077379;28;20875;-54
2023/05/03 12:25:21;;;;;;;4.13;1.53;;;13.40;93.60;;;;;;5051671;28;20202;-56
2023/05/03 12:27:48;;;;;;;3.40;1.07;;;13.50;93.50;;;;;;5075259;28;20206;-48
2023/05/03 12:30:15;;;;;;;1.03;0.87;;;13.50;99.90;;;;;;5081458;28;20210;-54
2023/05/03 12:32:41;;;;;;;3.13;0.90;;;13.80;92.40;;;;;;5057743;28;20210;-50
2023/05/03 12:35:09;;;;;;;1.10;0.90;;;13.70;91.90;;;;;;5072458;28;21136;-52
2023/05/03 12:37:36;;;;;;;2.80;1.17;;;13.60;91.60;;;;;;5074655;28;20210;-53
2023/05/03 12:40:04;;;;;;;1.57;1.10;;;13.50;91.60;;;;;;5061609;28;20603;-54
2023/05/03 12:42:32;;;;;;;1.93;1.10;;;13.50;92.80;;;;;;5074860;28;20202;-48
2023/05/03 12:45:00;;;;;;;2.80;1.13;;;13.80;92.40;;;;;;5080066;28;20560;-50
2023/05/03 12:47:27;;;;;;;2.00;1.40;;;14.00;98.40;;;;;;5082851;28;20233;-53
2023/05/03 12:49:54;;;;;;;1.43;1.10;;;14.00;91.50;;;;;;5060648;28;20687;-54
2023/05/03 12:52:21;;;;;;;5.20;1.33;;;13.80;91.10;;;;;;5073355;28;20276;-50
2023/05/03 12:54:48;;;;;;;4.17;1.40;;;13.90;90.90;;;;;;5081078;28;20198;-49
2023/05/03 12:57:16;;;;;;;3.03;1.87;;;14.00;90.70;;;;;;5064471;28;20218;-50
2023/05/03 12:59:46;;;;;;;2.77;1.00;;;14.30;99.90;;;;;;5082841;28;20194;-51
2023/05/03 13:02:13;;;;;;;2.50;1.10;;;14.50;90.90;;;;;;5076410;28;20259;-49
2023/05/03 13:04:40;;;;;;;1.83;1.20;;;14.60;88.40;;;;;;5059107;28;20210;-54